Dario Filipe — CUHY7 — position and weather

sailwx.info

Track history (hours):
 
Tides and Currents Weather Stations Pressure Air Temp Water Temp Dewpoint Dewpoint Depression Visibility Wind Speed Wind Dir Waves Ship Positions

Dario Filipe

Last reported at 2015-Jul-27 19:32 UTC. Time now 2015-Jul-28 15:24 UTC.
Position N 39°21' W 009°22'.

Length 24 m.

Type: Fishing. MMSI: 263414640.

Date/timePositionNaut miles runAvg speedWind from/ knotsBaromVisibWave heightAir tempDewpointWater temp
2015-Jul-27 19:32N 39°21' W 009°22'0 0.0
2015-Jul-27 18:32N 39°21' W 009°22'0 0.0
2015-Jul-27 17:33N 39°21' W 009°22'0 0.0
2015-Jul-27 16:30N 39°21' W 009°22'0 0.0
2015-Jul-27 15:24N 39°21' W 009°22'0 0.0
2015-Jul-27 14:17N 39°21' W 009°22'0 0.0
2015-Jul-27 13:31N 39°21' W 009°22'0 0.0
2015-Jul-27 12:33N 39°21' W 009°22'0 0.0
2015-Jul-27 11:31N 39°21' W 009°22'0 0.0
2015-Jul-27 10:33N 39°21' W 009°22'0 0.0
2015-Jul-27 08:29N 39°21' W 009°22'0 0.0
2015-Jul-26 03:25N 39°21' W 009°22'4 4.9
2015-Jul-26 02:32N 39°19' W 009°26'8 7.7
2015-Jul-26 01:32N 39°14' W 009°34'7 7.3
2015-Jul-26 00:33N 39°09' W 009°41'7 7.3
2015-Jul-25 23:32N 39°04' W 009°48'  
2015-Jul-19 20:30N 39°06' W 010°02'8 8.8
2015-Jul-19 19:33N 39°10' W 009°53'9 9.1
2015-Jul-19 18:34N 39°14' W 009°42'9 9.4
2015-Jul-19 17:33N 39°18' W 009°31'8 7.9
2015-Jul-19 16:32N 39°21' W 009°22'  
Track history (hours):
 
Tides and Currents Weather Stations Pressure Air Temp Water Temp Dewpoint Dewpoint Depression Visibility Wind Speed Wind Dir Waves Ship Positions

Dario Filipe

Last reported at 2015-Jul-27 19:32 UTC. Time now 2015-Jul-28 15:24 UTC.
Position N 39°21' W 009°22'.

Length 24 m.

Type: Fishing. MMSI: 263414640.

Date/timePositionNaut miles runAvg speedWind from/ knotsBaromVisibWave heightAir tempDewpointWater temp
2015-Jul-27 19:32N 39°21' W 009°22'0 0.0
2015-Jul-27 18:32N 39°21' W 009°22'0 0.0
2015-Jul-27 17:33N 39°21' W 009°22'0 0.0
2015-Jul-27 16:30N 39°21' W 009°22'0 0.0
2015-Jul-27 15:24N 39°21' W 009°22'0 0.0
2015-Jul-27 14:17N 39°21' W 009°22'0 0.0
2015-Jul-27 13:31N 39°21' W 009°22'0 0.0
2015-Jul-27 12:33N 39°21' W 009°22'0 0.0
2015-Jul-27 11:31N 39°21' W 009°22'0 0.0
2015-Jul-27 10:33N 39°21' W 009°22'0 0.0
2015-Jul-27 08:29N 39°21' W 009°22'0 0.0
2015-Jul-26 03:25N 39°21' W 009°22'4 4.9
2015-Jul-26 02:32N 39°19' W 009°26'8 7.7
2015-Jul-26 01:32N 39°14' W 009°34'7 7.3
2015-Jul-26 00:33N 39°09' W 009°41'7 7.3
2015-Jul-25 23:32N 39°04' W 009°48'  
2015-Jul-19 20:30N 39°06' W 010°02'8 8.8
2015-Jul-19 19:33N 39°10' W 009°53'9 9.1
2015-Jul-19 18:34N 39°14' W 009°42'9 9.4
2015-Jul-19 17:33N 39°18' W 009°31'8 7.9
2015-Jul-19 16:32N 39°21' W 009°22'  

Dump ship's entire track history